Madrone — WDJ7348 — position and weather

sailwx.info

Track history (hours):
 
Tides and Currents Weather Stations Pressure Air Temp Water Temp Dewpoint Dewpoint Depression Visibility Wind Speed Wind Dir Waves Ship Positions

Madrone

Owner: Zelman, Michael, Seattle, WA. More information available from US FCC via Universal Licensing System and Coast Guard Vessel Documentation Center.

Last reported at 2018-May-06 18:24 UTC. Time now 2018-Jun-18 05:28 UTC.
Position N 37°30' W 122°29'.
Warning: this ship's position is 42 days out of date.

Length 13 m.

Type: Sailing vessel. MMSI: 368005840.

Date/timePositionNaut miles runAvg speedWind from/ knotsBaromVisibWave heightAir tempDewpointWater temp
2018-May-06 18:24N 37°30' W 122°29'0 0.4
2018-May-06 17:58N 37°30' W 122°29'0 0.0
2018-May-06 17:28N 37°30' W 122°29'0 0.0
2018-May-06 16:58N 37°30' W 122°29'0 0.0
2018-May-06 16:28N 37°30' W 122°29'0 0.6
2018-May-06 16:00N 37°30' W 122°29'0 0.0
2018-May-06 15:30N 37°30' W 122°29'0 0.0
2018-May-06 15:00N 37°30' W 122°29'  
2018-May-03 22:29N 37°30' W 122°29'0 0.0
2018-May-03 22:00N 37°30' W 122°29'1 2.9
2018-May-03 21:30N 37°29' W 122°31'4 7.2
2018-May-03 21:00N 37°32' W 122°33'14 4.8
2018-May-03 18:02N 37°47' W 122°33'0 6.5
2018-May-03 17:59N 37°47' W 122°33'3 6.6
2018-May-03 17:29N 37°49' W 122°29'3 6.4
2018-May-03 17:00N 37°49' W 122°25'0 0.0
2018-May-02 23:59N 37°49' W 122°25'0 0.0
2018-May-02 23:29N 37°49' W 122°25'0 0.0
2018-May-02 23:01N 37°49' W 122°25'0 0.0
2018-May-02 22:28N 37°49' W 122°25'0 0.0
2018-May-02 21:59N 37°49' W 122°25'0 0.0
2018-May-02 21:29N 37°49' W 122°25'0 0.0
2018-May-02 20:59N 37°49' W 122°25'0 0.0
2018-May-02 20:28N 37°49' W 122°25'0 0.0
2018-May-02 20:00N 37°49' W 122°25'2 4.4
2018-May-02 19:31N 37°50' W 122°27'2 3.4
2018-May-02 18:59N 37°52' W 122°28'0 0.0
2018-May-02 18:31N 37°52' W 122°28'0 0.0
2018-May-02 02:25N 37°52' W 122°28'0 0.0
2018-May-01 22:49N 37°52' W 122°28'1 2.7
2018-May-01 22:30N 37°52' W 122°29'0 0.0
2018-May-01 03:28N 37°52' W 122°30'0 0.5
2018-May-01 03:00N 37°52' W 122°30'  
Track history (hours):
 
Tides and Currents Weather Stations Pressure Air Temp Water Temp Dewpoint Dewpoint Depression Visibility Wind Speed Wind Dir Waves Ship Positions

Madrone

Owner: Zelman, Michael, Seattle, WA. More information available from US FCC via Universal Licensing System and Coast Guard Vessel Documentation Center.

Last reported at 2018-May-06 18:24 UTC. Time now 2018-Jun-18 05:28 UTC.
Position N 37°30' W 122°29'.
Warning: this ship's position is 42 days out of date.

Length 13 m.

Type: Sailing vessel. MMSI: 368005840.

Date/timePositionNaut miles runAvg speedWind from/ knotsBaromVisibWave heightAir tempDewpointWater temp
2018-May-06 18:24N 37°30' W 122°29'0 0.4
2018-May-06 17:58N 37°30' W 122°29'0 0.0
2018-May-06 17:28N 37°30' W 122°29'0 0.0
2018-May-06 16:58N 37°30' W 122°29'0 0.0
2018-May-06 16:28N 37°30' W 122°29'0 0.6
2018-May-06 16:00N 37°30' W 122°29'0 0.0
2018-May-06 15:30N 37°30' W 122°29'0 0.0
2018-May-06 15:00N 37°30' W 122°29'  
2018-May-03 22:29N 37°30' W 122°29'0 0.0
2018-May-03 22:00N 37°30' W 122°29'1 2.9
2018-May-03 21:30N 37°29' W 122°31'4 7.2
2018-May-03 21:00N 37°32' W 122°33'14 4.8
2018-May-03 18:02N 37°47' W 122°33'0 6.5
2018-May-03 17:59N 37°47' W 122°33'3 6.6
2018-May-03 17:29N 37°49' W 122°29'3 6.4
2018-May-03 17:00N 37°49' W 122°25'0 0.0
2018-May-02 23:59N 37°49' W 122°25'0 0.0
2018-May-02 23:29N 37°49' W 122°25'0 0.0
2018-May-02 23:01N 37°49' W 122°25'0 0.0
2018-May-02 22:28N 37°49' W 122°25'0 0.0
2018-May-02 21:59N 37°49' W 122°25'0 0.0
2018-May-02 21:29N 37°49' W 122°25'0 0.0
2018-May-02 20:59N 37°49' W 122°25'0 0.0
2018-May-02 20:28N 37°49' W 122°25'0 0.0
2018-May-02 20:00N 37°49' W 122°25'2 4.4
2018-May-02 19:31N 37°50' W 122°27'2 3.4
2018-May-02 18:59N 37°52' W 122°28'0 0.0
2018-May-02 18:31N 37°52' W 122°28'0 0.0
2018-May-02 02:25N 37°52' W 122°28'0 0.0
2018-May-01 22:49N 37°52' W 122°28'1 2.7
2018-May-01 22:30N 37°52' W 122°29'0 0.0
2018-May-01 03:28N 37°52' W 122°30'0 0.5
2018-May-01 03:00N 37°52' W 122°30'  

Dump ship's entire track history